createdAt,value
2022-09-24T00:01:43.185Z,12.89
2022-09-24T00:03:52.157Z,12.89
2022-09-24T00:05:53.813Z,12.89
2022-09-24T00:07:55.254Z,12.88
2022-09-24T00:09:56.702Z,12.88
2022-09-24T00:11:58.209Z,12.88
2022-09-24T00:14:00.252Z,12.90
2022-09-24T00:16:05.879Z,12.89
2022-09-24T00:18:07.955Z,12.88
2022-09-24T00:20:09.559Z,12.85
2022-09-24T00:22:11.096Z,12.84
2022-09-24T00:24:35.039Z,12.83
2022-09-24T00:26:51.951Z,12.79
2022-09-24T00:28:53.381Z,12.79
2022-09-24T00:30:58.386Z,12.79
2022-09-24T00:32:59.904Z,12.77
2022-09-24T00:35:01.392Z,12.77
2022-09-24T00:37:02.955Z,12.77
2022-09-24T00:39:05.469Z,12.78
2022-09-24T00:41:06.990Z,12.75
2022-09-24T00:43:41.226Z,12.72
2022-09-24T00:45:42.680Z,12.70
2022-09-24T00:47:44.864Z,12.71
2022-09-24T00:49:49.309Z,12.70
2022-09-24T00:51:52.947Z,12.68
2022-09-24T00:53:59.179Z,12.65
2022-09-24T00:56:03.006Z,12.62
2022-09-24T00:58:07.224Z,12.58
2022-09-24T01:00:09.705Z,12.57
2022-09-24T01:02:11.980Z,12.55
2022-09-24T01:04:16.252Z,12.53
2022-09-24T01:06:17.716Z,12.51
2022-09-24T01:08:20.636Z,12.52
2022-09-24T01:10:50.953Z,12.52
2022-09-24T01:13:02.073Z,12.49
2022-09-24T01:15:21.494Z,12.47
2022-09-24T01:18:07.985Z,12.48
2022-09-24T01:20:18.447Z,12.47
2022-09-24T01:22:41.703Z,12.49
2022-09-24T01:25:01.906Z,12.46
2022-09-24T01:27:26.595Z,12.44
2022-09-24T01:29:42.191Z,12.43
2022-09-24T01:31:48.892Z,12.43
2022-09-24T01:33:53.575Z,12.39
2022-09-24T01:35:59.329Z,12.36
2022-09-24T01:38:22.967Z,12.34
2022-09-24T01:40:27.649Z,12.31
2022-09-24T01:42:31.170Z,12.32
2022-09-24T01:44:34.815Z,12.33
2022-09-24T01:46:41.290Z,12.29
2022-09-24T01:48:42.934Z,12.25
2022-09-24T01:50:58.662Z,12.25
2022-09-24T01:53:07.434Z,12.24
2022-09-24T01:55:13.782Z,12.22
2022-09-24T01:57:22.502Z,12.20
2022-09-24T01:59:37.729Z,12.11
2022-09-24T02:02:18.134Z,12.12
2022-09-24T02:04:21.571Z,12.13
2022-09-24T02:06:33.556Z,12.12
2022-09-24T02:08:41.072Z,12.12
2022-09-24T02:10:49.982Z,12.10
2022-09-24T02:12:59.604Z,12.08
2022-09-24T02:15:17.416Z,12.10
2022-09-24T02:17:19.265Z,12.10
2022-09-24T02:19:29.127Z,12.13
2022-09-24T02:21:33.321Z,12.12
2022-09-24T02:23:38.507Z,12.09
2022-09-24T02:25:50.610Z,12.06
2022-09-24T02:27:52.095Z,12.07
2022-09-24T02:29:53.575Z,12.08
2022-09-24T02:31:57.685Z,12.12
2022-09-24T02:34:20.576Z,12.12
2022-09-24T02:36:24.860Z,12.11
2022-09-24T02:38:26.328Z,12.11
2022-09-24T02:40:28.015Z,12.13
2022-09-24T02:42:31.371Z,12.12
2022-09-24T02:44:34.124Z,12.14
2022-09-24T02:46:35.613Z,12.16
2022-09-24T02:48:37.354Z,12.16
2022-09-24T02:50:38.777Z,12.14
2022-09-24T02:52:40.205Z,12.13
2022-09-24T02:54:42.599Z,12.11
2022-09-24T02:56:44.020Z,12.12
2022-09-24T02:58:45.491Z,12.09
2022-09-24T03:00:46.973Z,12.07
2022-09-24T03:02:48.591Z,12.08
2022-09-24T03:04:50.894Z,12.07
2022-09-24T03:06:52.403Z,12.02
2022-09-24T03:08:54.674Z,12.00
2022-09-24T03:10:56.235Z,11.98
2022-09-24T03:12:58.177Z,11.98
2022-09-24T03:14:59.599Z,11.95
2022-09-24T03:17:01.249Z,11.93
2022-09-24T03:19:03.157Z,11.93
2022-09-24T03:21:10.557Z,11.92
2022-09-24T03:23:11.997Z,11.92
2022-09-24T03:25:14.713Z,11.91
2022-09-24T03:27:16.257Z,11.90
2022-09-24T03:29:37.662Z,11.90
2022-09-24T03:31:39.188Z,11.90
2022-09-24T03:33:43.464Z,11.95
2022-09-24T03:35:44.927Z,11.94
2022-09-24T03:37:49.185Z,11.95
2022-09-24T03:39:50.851Z,11.93
2022-09-24T03:41:52.277Z,11.89
2022-09-24T03:43:53.994Z,11.88
2022-09-24T03:45:55.765Z,11.88
2022-09-24T03:47:57.195Z,11.88
2022-09-24T03:49:58.749Z,11.85
2022-09-24T03:52:00.186Z,11.84
2022-09-24T03:54:01.678Z,11.84
2022-09-24T03:56:05.610Z,11.86
2022-09-24T03:58:07.047Z,11.88
2022-09-24T04:00:09.247Z,11.89
2022-09-24T04:02:11.933Z,11.89
2022-09-24T04:04:16.248Z,11.91
2022-09-24T04:06:22.092Z,11.91
2022-09-24T04:08:26.320Z,11.87
2022-09-24T04:10:28.683Z,11.90
2022-09-24T04:12:31.120Z,11.92
2022-09-24T04:14:32.569Z,11.95
2022-09-24T04:16:34.145Z,11.94
2022-09-24T04:18:39.052Z,11.90
2022-09-24T04:20:41.627Z,11.88
2022-09-24T04:22:43.079Z,11.90
2022-09-24T04:24:44.650Z,11.90
2022-09-24T04:26:46.080Z,11.91
2022-09-24T04:28:47.512Z,11.90
2022-09-24T04:30:49.095Z,11.92
2022-09-24T04:32:51.535Z,11.89
2022-09-24T04:34:52.961Z,11.91
2022-09-24T04:36:54.377Z,11.89
2022-09-24T04:38:57.149Z,11.87
2022-09-24T04:41:05.381Z,11.88
2022-09-24T04:43:07.198Z,11.88
2022-09-24T04:45:10.113Z,11.88
2022-09-24T04:47:11.650Z,11.85
2022-09-24T04:49:14.191Z,11.86
2022-09-24T04:51:17.637Z,11.86
2022-09-24T04:53:19.424Z,11.85
2022-09-24T04:55:21.737Z,11.85
2022-09-24T04:57:23.394Z,11.86
2022-09-24T04:59:24.891Z,11.85
2022-09-24T05:01:26.719Z,11.86
2022-09-24T05:03:28.193Z,11.86
2022-09-24T05:05:30.477Z,11.87
2022-09-24T05:07:31.901Z,11.86
2022-09-24T05:09:33.552Z,11.85
2022-09-24T05:11:35.051Z,11.83
2022-09-24T05:13:36.478Z,11.83
2022-09-24T05:15:42.375Z,11.84
2022-09-24T05:17:45.268Z,11.83
2022-09-24T05:19:46.727Z,11.84
2022-09-24T05:21:48.587Z,11.83
2022-09-24T05:23:50.035Z,11.83
2022-09-24T05:26:09.975Z,11.80
2022-09-24T05:28:11.402Z,11.77
2022-09-24T05:30:13.329Z,11.77
2022-09-24T05:32:17.467Z,11.78
2022-09-24T05:34:19.111Z,11.79
2022-09-24T05:36:20.604Z,11.81
2022-09-24T05:38:22.032Z,11.83
2022-09-24T05:40:42.739Z,11.80
2022-09-24T05:42:44.202Z,11.81
2022-09-24T05:44:49.806Z,11.82
2022-09-24T05:46:53.581Z,11.80
2022-09-24T05:48:55.818Z,11.80
2022-09-24T05:50:57.354Z,11.82
2022-09-24T05:52:58.778Z,11.85
2022-09-24T05:55:00.226Z,11.85
2022-09-24T05:57:01.666Z,11.85
2022-09-24T05:59:03.525Z,11.87
2022-09-24T06:01:05.058Z,11.87
2022-09-24T06:03:11.929Z,11.87
2022-09-24T06:05:13.638Z,11.90
2022-09-24T06:07:15.056Z,11.92
2022-09-24T06:09:16.475Z,11.92
2022-09-24T06:11:18.790Z,11.96
2022-09-24T06:13:21.040Z,11.99
2022-09-24T06:15:22.687Z,12.00
2022-09-24T06:17:24.113Z,11.99
2022-09-24T06:19:25.588Z,11.96
2022-09-24T06:21:27.030Z,11.98
2022-09-24T06:23:29.229Z,12.00
2022-09-24T06:25:31.294Z,12.01
2022-09-24T06:27:32.774Z,12.06
2022-09-24T06:29:34.293Z,12.07
2022-09-24T06:31:35.831Z,12.07
2022-09-24T06:33:38.101Z,12.09
2022-09-24T06:35:44.457Z,12.08
2022-09-24T06:37:45.978Z,12.05
2022-09-24T06:39:47.438Z,12.08
2022-09-24T06:41:50.338Z,12.10
2022-09-24T06:43:54.570Z,12.12
2022-09-24T06:45:57.689Z,12.13
2022-09-24T06:48:00.995Z,12.15
2022-09-24T06:50:02.446Z,12.18
2022-09-24T06:52:04.867Z,12.17
2022-09-24T06:54:06.352Z,12.17
2022-09-24T06:56:07.869Z,12.19
2022-09-24T06:58:12.084Z,12.21
2022-09-24T07:00:15.488Z,12.18
2022-09-24T07:02:17.185Z,12.18
2022-09-24T07:04:18.672Z,12.18
2022-09-24T07:06:20.231Z,12.19
2022-09-24T07:08:22.508Z,12.21
2022-09-24T07:10:25.222Z,12.22
2022-09-24T07:12:26.810Z,12.20
2022-09-24T07:14:28.231Z,12.22
2022-09-24T07:16:29.716Z,12.26
2022-09-24T07:18:31.178Z,12.29
2022-09-24T07:20:33.590Z,12.32
2022-09-24T07:22:43.104Z,12.30
2022-09-24T07:24:44.822Z,12.32
2022-09-24T07:26:46.283Z,12.27
2022-09-24T07:28:47.804Z,12.33
2022-09-24T07:30:57.337Z,12.39
2022-09-24T07:32:59.070Z,12.44
2022-09-24T07:35:00.538Z,12.45
2022-09-24T07:37:02.051Z,12.47
2022-09-24T07:39:03.669Z,12.51
2022-09-24T07:41:07.956Z,12.55
2022-09-24T07:43:13.799Z,12.59
2022-09-24T07:45:17.349Z,12.66
2022-09-24T07:47:18.836Z,12.67
2022-09-24T07:49:20.333Z,12.68
2022-09-24T07:51:27.528Z,12.74
2022-09-24T07:53:28.960Z,12.78
2022-09-24T07:55:30.379Z,12.78
2022-09-24T07:57:32.020Z,12.78
2022-09-24T07:59:33.510Z,12.81
2022-09-24T08:01:34.994Z,12.87
2022-09-24T08:03:36.605Z,12.88
2022-09-24T08:05:45.592Z,12.90
2022-09-24T08:07:55.199Z,12.89
2022-09-24T08:09:56.760Z,12.88
2022-09-24T08:11:58.251Z,12.88
2022-09-24T08:14:00.618Z,12.89
2022-09-24T08:16:03.207Z,12.89
2022-09-24T08:18:05.698Z,12.91
2022-09-24T08:20:07.562Z,12.87
2022-09-24T08:22:08.980Z,12.89
2022-09-24T08:24:10.462Z,12.93
2022-09-24T08:26:13.056Z,12.95
2022-09-24T08:28:16.985Z,13.00
2022-09-24T08:30:18.614Z,13.05
2022-09-24T08:32:20.046Z,13.03
2022-09-24T08:34:21.596Z,13.05
2022-09-24T08:36:23.048Z,13.10
2022-09-24T08:38:24.466Z,13.12
2022-09-24T08:40:30.193Z,13.15
2022-09-24T08:42:40.089Z,13.15
2022-09-24T08:45:07.420Z,13.18
2022-09-24T08:47:27.272Z,13.22
2022-09-24T08:49:35.273Z,13.28
2022-09-24T08:51:51.176Z,13.33
2022-09-24T08:54:10.348Z,13.39
2022-09-24T08:56:12.519Z,13.46
2022-09-24T08:58:44.360Z,13.48
2022-09-24T09:00:52.043Z,13.47
2022-09-24T09:03:03.823Z,13.50
2022-09-24T09:05:39.487Z,13.49
2022-09-24T09:07:54.791Z,13.52
2022-09-24T09:10:09.721Z,13.55
2022-09-24T09:12:17.742Z,13.58
2022-09-24T09:14:31.175Z,13.64
2022-09-24T09:16:50.447Z,13.60
2022-09-24T09:18:55.939Z,13.59
2022-09-24T09:21:10.430Z,13.62
2022-09-24T09:23:19.280Z,13.60
2022-09-24T09:25:28.453Z,13.64
2022-09-24T09:27:30.048Z,13.67
2022-09-24T09:29:31.878Z,13.73
2022-09-24T09:31:45.880Z,13.78
2022-09-24T09:34:14.152Z,13.82
2022-09-24T09:36:27.074Z,13.80
2022-09-24T09:39:04.792Z,13.84
2022-09-24T09:41:12.051Z,13.81
2022-09-24T09:43:14.796Z,13.81
2022-09-24T09:45:35.193Z,13.82
2022-09-24T09:47:43.539Z,13.81
2022-09-24T09:49:47.285Z,13.77
2022-09-24T09:51:49.926Z,13.73
2022-09-24T09:53:59.444Z,13.69
2022-09-24T09:56:04.845Z,13.70
2022-09-24T09:58:15.379Z,13.69
2022-09-24T10:00:32.971Z,13.72
2022-09-24T10:02:37.645Z,13.76
2022-09-24T10:04:41.434Z,13.80
2022-09-24T10:06:42.868Z,13.84
2022-09-24T10:08:44.318Z,13.89
2022-09-24T10:10:56.812Z,13.96
2022-09-24T10:13:09.209Z,13.97
2022-09-24T10:15:19.047Z,14.06
2022-09-24T10:17:28.341Z,14.12
2022-09-24T10:19:29.891Z,14.19
2022-09-24T10:21:36.972Z,14.24
2022-09-24T10:23:43.897Z,14.21
2022-09-24T10:25:51.526Z,14.19
2022-09-24T10:28:18.692Z,14.15
2022-09-24T10:30:36.109Z,14.20
2022-09-24T10:32:38.280Z,14.28
2022-09-24T10:34:39.710Z,14.35
2022-09-24T10:36:53.618Z,14.37
2022-09-24T10:39:21.660Z,14.38
2022-09-24T10:41:27.354Z,14.35
2022-09-24T10:43:28.928Z,14.36
2022-09-24T10:45:49.640Z,14.42
2022-09-24T10:47:57.908Z,14.47
2022-09-24T10:50:31.539Z,14.48
2022-09-24T10:53:13.414Z,14.45
2022-09-24T10:55:19.249Z,14.47
2022-09-24T10:57:39.715Z,14.50
2022-09-24T11:00:01.101Z,14.53
2022-09-24T11:02:17.595Z,14.55
2022-09-24T11:04:44.039Z,14.55
2022-09-24T11:07:07.183Z,14.54
2022-09-24T11:09:14.564Z,14.56
2022-09-24T11:11:21.902Z,14.57
2022-09-24T11:13:51.702Z,14.57
2022-09-24T11:16:16.607Z,14.54
2022-09-24T11:18:39.117Z,14.52
2022-09-24T11:21:03.018Z,14.51
2022-09-24T11:23:17.073Z,14.50
2022-09-24T11:25:52.611Z,14.48
2022-09-24T11:28:15.704Z,14.43
2022-09-24T11:30:24.940Z,14.43
2022-09-24T11:32:38.404Z,14.42
2022-09-24T11:34:39.800Z,14.41
2022-09-24T11:36:59.374Z,14.42
2022-09-24T11:39:25.475Z,14.39
2022-09-24T11:42:03.968Z,14.38
2022-09-24T11:44:16.783Z,14.37
2022-09-24T11:46:37.011Z,14.37
2022-09-24T11:49:08.829Z,14.38
2022-09-24T11:51:26.410Z,14.42
2022-09-24T11:53:59.999Z,14.44
2022-09-24T11:56:13.182Z,14.45
2022-09-24T11:58:24.017Z,14.47
2022-09-24T12:00:33.867Z,14.47
2022-09-24T12:02:40.207Z,14.46
2022-09-24T12:04:59.174Z,14.44
2022-09-24T12:07:12.801Z,14.42
2022-09-24T12:09:53.716Z,14.41
2022-09-24T12:12:16.218Z,14.43
2022-09-24T12:14:22.746Z,14.45
2022-09-24T12:16:28.534Z,14.49
2022-09-24T12:18:36.623Z,14.50
2022-09-24T12:20:52.670Z,14.51
2022-09-24T12:23:02.245Z,14.56
2022-09-24T12:25:04.658Z,14.59
2022-09-24T12:27:12.406Z,14.66
2022-09-24T12:29:54.139Z,14.71
2022-09-24T12:32:21.408Z,14.73
2022-09-24T12:34:50.813Z,14.70
2022-09-24T12:37:02.522Z,14.79
2022-09-24T12:39:12.900Z,14.89
2022-09-24T12:41:36.428Z,14.95
2022-09-24T12:43:47.840Z,15.03
2022-09-24T12:45:55.641Z,15.07
2022-09-24T12:48:00.280Z,15.16
2022-09-24T12:50:05.018Z,15.17
2022-09-24T12:52:18.895Z,15.20
2022-09-24T12:54:39.060Z,15.31
2022-09-24T12:56:41.016Z,15.34
2022-09-24T12:58:44.831Z,15.36
2022-09-24T13:00:47.248Z,15.37
2022-09-24T13:02:48.838Z,15.37
2022-09-24T13:05:12.060Z,15.38
2022-09-24T13:07:35.241Z,15.36
2022-09-24T13:09:41.244Z,15.34
2022-09-24T13:11:43.286Z,15.33
2022-09-24T13:13:44.834Z,15.28
2022-09-24T13:15:58.070Z,15.21
2022-09-24T13:18:11.386Z,15.14
2022-09-24T13:20:28.242Z,15.11
2022-09-24T13:22:30.729Z,15.09
2022-09-24T13:24:45.761Z,15.08
2022-09-24T13:26:47.246Z,15.06
2022-09-24T13:28:50.979Z,15.06
2022-09-24T13:31:10.668Z,15.07
2022-09-24T13:33:33.377Z,15.07
2022-09-24T13:35:43.235Z,15.08
2022-09-24T13:37:52.522Z,15.07
2022-09-24T13:40:03.534Z,15.05
2022-09-24T13:42:26.482Z,15.07
2022-09-24T13:44:39.405Z,15.11
2022-09-24T13:46:46.483Z,15.09
2022-09-24T13:48:59.709Z,15.13
2022-09-24T13:51:04.277Z,15.15
2022-09-24T13:53:31.871Z,15.16
2022-09-24T13:55:39.785Z,15.19
2022-09-24T13:57:45.679Z,15.19
2022-09-24T13:59:47.171Z,15.23
2022-09-24T14:01:48.670Z,15.20
2022-09-24T14:03:57.258Z,15.20
2022-09-24T14:05:59.776Z,15.25
2022-09-24T14:08:06.448Z,15.31
2022-09-24T14:10:14.194Z,15.35
2022-09-24T14:12:22.284Z,15.37
2022-09-24T14:14:26.724Z,15.42
2022-09-24T14:16:28.243Z,15.41
2022-09-24T14:18:30.003Z,15.43
2022-09-24T14:20:35.174Z,15.46
2022-09-24T14:22:41.107Z,15.44
2022-09-24T14:24:56.424Z,15.47
2022-09-24T14:27:00.826Z,15.45
2022-09-24T14:29:13.244Z,15.46
2022-09-24T14:31:14.874Z,15.45
2022-09-24T14:33:20.179Z,15.47
2022-09-24T14:35:33.094Z,15.49
2022-09-24T14:37:38.708Z,15.48
2022-09-24T14:39:43.300Z,15.47
2022-09-24T14:41:44.859Z,15.47
2022-09-24T14:43:58.406Z,15.47
2022-09-24T14:46:23.716Z,15.49
2022-09-24T14:48:31.930Z,15.51
2022-09-24T14:50:38.873Z,15.57
2022-09-24T14:52:40.577Z,15.61
2022-09-24T14:54:42.037Z,15.63
2022-09-24T14:56:43.632Z,15.65
2022-09-24T14:58:45.109Z,15.65
2022-09-24T15:00:50.027Z,15.63
2022-09-24T15:03:00.026Z,15.61
2022-09-24T15:05:06.433Z,15.59
2022-09-24T15:07:15.994Z,15.54
2022-09-24T15:09:26.136Z,15.51
2022-09-24T15:11:34.405Z,15.49
2022-09-24T15:13:37.713Z,15.46
2022-09-24T15:15:40.008Z,15.45
2022-09-24T15:17:41.524Z,15.46
2022-09-24T15:19:44.024Z,15.44
2022-09-24T15:21:50.339Z,15.42
2022-09-24T15:23:51.829Z,15.45
2022-09-24T15:25:53.333Z,15.43
2022-09-24T15:27:54.965Z,15.41
2022-09-24T15:29:59.498Z,15.42
2022-09-24T15:32:01.370Z,15.41
2022-09-24T15:34:02.846Z,15.38
2022-09-24T15:36:04.531Z,15.38
2022-09-24T15:38:06.397Z,15.37
2022-09-24T15:40:12.737Z,15.39
2022-09-24T15:42:19.434Z,15.37
2022-09-24T15:44:27.119Z,15.38
2022-09-24T15:46:30.065Z,15.36
2022-09-24T15:48:31.566Z,15.35
2022-09-24T15:50:33.633Z,15.34
2022-09-24T15:52:44.750Z,15.33
2022-09-24T15:54:46.174Z,15.29
2022-09-24T15:56:52.330Z,15.30
2022-09-24T15:58:54.302Z,15.27
2022-09-24T16:00:55.765Z,15.25
2022-09-24T16:02:57.981Z,15.22
2022-09-24T16:05:03.507Z,15.22
2022-09-24T16:07:05.699Z,15.23
2022-09-24T16:09:07.156Z,15.24
2022-09-24T16:11:09.402Z,15.24
2022-09-24T16:13:12.165Z,15.20
2022-09-24T16:15:15.839Z,15.17
2022-09-24T16:17:17.273Z,15.15
2022-09-24T16:19:18.770Z,15.17
2022-09-24T16:21:20.447Z,15.18
2022-09-24T16:23:22.014Z,15.17
2022-09-24T16:25:23.735Z,15.17
2022-09-24T16:27:25.174Z,15.17
2022-09-24T16:29:26.708Z,15.16
2022-09-24T16:31:28.187Z,15.13
2022-09-24T16:33:29.678Z,15.12
2022-09-24T16:35:31.140Z,15.12
2022-09-24T16:37:32.559Z,15.11
2022-09-24T16:39:34.395Z,15.09
2022-09-24T16:41:37.796Z,15.09
2022-09-24T16:43:39.387Z,15.09
2022-09-24T16:45:40.824Z,15.08
2022-09-24T16:47:42.250Z,15.09
2022-09-24T16:49:44.414Z,15.09
2022-09-24T16:51:45.834Z,15.09
2022-09-24T16:53:48.952Z,15.08
2022-09-24T16:55:50.608Z,15.08
2022-09-24T16:57:52.854Z,15.09
2022-09-24T16:59:54.281Z,15.08
2022-09-24T17:01:55.828Z,15.07
2022-09-24T17:03:58.783Z,15.07
2022-09-24T17:06:00.335Z,15.03
2022-09-24T17:08:01.852Z,15.02
2022-09-24T17:10:18.375Z,15.00
2022-09-24T17:12:19.951Z,14.98
2022-09-24T17:14:21.475Z,14.94
2022-09-24T17:16:24.788Z,14.86
2022-09-24T17:18:27.481Z,14.79
2022-09-24T17:20:29.689Z,14.73
2022-09-24T17:22:31.175Z,14.69
2022-09-24T17:24:32.752Z,14.64
2022-09-24T17:26:34.531Z,14.60
2022-09-24T17:28:37.073Z,14.51
2022-09-24T17:30:38.519Z,14.41
2022-09-24T17:32:39.947Z,14.37
2022-09-24T17:34:45.644Z,14.29
2022-09-24T17:36:47.671Z,14.22
2022-09-24T17:38:49.169Z,14.17
2022-09-24T17:40:57.042Z,14.12
2022-09-24T17:42:58.472Z,14.07
2022-09-24T17:44:59.896Z,14.02
2022-09-24T17:47:01.498Z,13.98
2022-09-24T17:49:03.259Z,13.96
2022-09-24T17:51:19.983Z,13.93
2022-09-24T17:53:21.439Z,13.89
2022-09-24T17:55:22.977Z,13.90
2022-09-24T17:57:25.486Z,13.86
2022-09-24T17:59:27.297Z,13.82
2022-09-24T18:01:33.429Z,13.80
2022-09-24T18:03:35.440Z,13.75
2022-09-24T18:05:37.834Z,13.71
2022-09-24T18:07:39.294Z,13.68
2022-09-24T18:09:40.773Z,13.68
2022-09-24T18:11:45.238Z,13.66
2022-09-24T18:13:54.274Z,13.63
2022-09-24T18:15:55.803Z,13.60
2022-09-24T18:17:57.612Z,13.57
2022-09-24T18:19:59.392Z,13.56
2022-09-24T18:22:00.822Z,13.56
2022-09-24T18:24:02.789Z,13.52
2022-09-24T18:26:19.170Z,13.49
2022-09-24T18:28:20.647Z,13.47
2022-09-24T18:30:22.126Z,13.46
2022-09-24T18:32:26.110Z,13.45
2022-09-24T18:34:27.637Z,13.45
2022-09-24T18:36:29.418Z,13.45
2022-09-24T18:38:34.316Z,13.43
2022-09-24T18:40:35.815Z,13.41
2022-09-24T18:42:37.329Z,13.41
2022-09-24T18:44:38.837Z,13.40
2022-09-24T18:46:40.467Z,13.40
2022-09-24T18:48:43.638Z,13.38
2022-09-24T18:50:45.667Z,13.38
2022-09-24T18:52:47.113Z,13.34
2022-09-24T18:54:48.775Z,13.33
2022-09-24T18:56:50.532Z,13.31
2022-09-24T18:59:09.686Z,13.31
2022-09-24T19:01:11.559Z,13.28
2022-09-24T19:03:13.088Z,13.28
2022-09-24T19:05:14.563Z,13.28
2022-09-24T19:07:16.038Z,13.28
2022-09-24T19:09:20.260Z,13.28
2022-09-24T19:11:22.846Z,13.26
2022-09-24T19:13:26.504Z,13.26
2022-09-24T19:15:28.554Z,13.26
2022-09-24T19:17:30.034Z,13.25
2022-09-24T19:19:31.704Z,13.24
2022-09-24T19:21:33.266Z,13.24
2022-09-24T19:23:46.892Z,13.25
2022-09-24T19:25:48.344Z,13.25
2022-09-24T19:27:49.755Z,13.23
2022-09-24T19:29:53.718Z,13.27
2022-09-24T19:31:55.189Z,13.27
2022-09-24T19:33:57.313Z,13.25
2022-09-24T19:36:04.935Z,13.24
2022-09-24T19:38:06.372Z,13.25
2022-09-24T19:40:10.068Z,13.26
2022-09-24T19:42:11.604Z,13.25
2022-09-24T19:44:13.687Z,13.17
2022-09-24T19:46:16.969Z,13.16
2022-09-24T19:48:18.468Z,13.27
2022-09-24T19:50:19.943Z,13.29
2022-09-24T19:52:21.486Z,13.30
2022-09-24T19:54:23.089Z,13.32
2022-09-24T19:56:25.442Z,13.31
2022-09-24T19:58:27.512Z,13.31
2022-09-24T20:00:28.964Z,13.25
2022-09-24T20:02:30.511Z,13.27
2022-09-24T20:04:33.715Z,13.25
2022-09-24T20:06:38.504Z,13.30
2022-09-24T20:08:40.188Z,13.34
2022-09-24T20:10:42.201Z,13.33
2022-09-24T20:12:46.604Z,13.35
2022-09-24T20:14:48.029Z,13.35
2022-09-24T20:16:49.819Z,13.37
2022-09-24T20:18:55.590Z,13.36
2022-09-24T20:21:03.447Z,13.33
2022-09-24T20:23:05.532Z,13.31
2022-09-24T20:25:07.392Z,13.31
2022-09-24T20:27:30.008Z,13.32
2022-09-24T20:29:31.425Z,13.31
2022-09-24T20:31:33.349Z,13.31
2022-09-24T20:33:34.866Z,13.31
2022-09-24T20:35:38.195Z,13.30
2022-09-24T20:37:39.642Z,13.25
2022-09-24T20:39:41.057Z,13.24
2022-09-24T20:41:42.874Z,13.22
2022-09-24T20:43:45.833Z,13.16
2022-09-24T20:45:47.352Z,13.12
2022-09-24T20:47:49.859Z,13.12
2022-09-24T20:49:51.298Z,13.11
2022-09-24T20:51:57.350Z,13.08
2022-09-24T20:53:59.882Z,13.06
2022-09-24T20:56:02.079Z,13.03
2022-09-24T20:58:03.568Z,13.00
2022-09-24T21:00:05.762Z,13.00
2022-09-24T21:02:07.341Z,12.99
2022-09-24T21:04:08.916Z,12.97
2022-09-24T21:06:11.801Z,12.94
2022-09-24T21:08:16.612Z,12.92
2022-09-24T21:10:18.721Z,12.88
2022-09-24T21:12:20.644Z,12.88
2022-09-24T21:14:22.215Z,12.88
2022-09-24T21:16:26.640Z,12.90
2022-09-24T21:18:38.352Z,12.88
2022-09-24T21:20:42.496Z,12.89
2022-09-24T21:22:44.016Z,12.85
2022-09-24T21:24:45.977Z,12.85
2022-09-24T21:26:47.664Z,12.85
2022-09-24T21:28:51.872Z,12.85
2022-09-24T21:30:58.167Z,12.80
2022-09-24T21:33:00.353Z,12.81
2022-09-24T21:35:01.882Z,12.78
2022-09-24T21:37:03.959Z,12.76
2022-09-24T21:39:08.654Z,12.76
2022-09-24T21:41:10.155Z,12.75
2022-09-24T21:43:11.663Z,12.75
2022-09-24T21:45:13.860Z,12.69
2022-09-24T21:47:15.308Z,12.68
2022-09-24T21:49:17.364Z,12.68
2022-09-24T21:51:22.910Z,12.68
2022-09-24T21:53:24.367Z,12.68
2022-09-24T21:55:25.821Z,12.68
2022-09-24T21:57:27.252Z,12.68
2022-09-24T21:59:47.237Z,12.73
2022-09-24T22:01:49.195Z,12.74
2022-09-24T22:03:56.070Z,12.74
2022-09-24T22:05:59.586Z,12.72
2022-09-24T22:08:01.219Z,12.69
2022-09-24T22:10:02.728Z,12.66
2022-09-24T22:12:04.568Z,12.68
2022-09-24T22:14:06.207Z,12.69
2022-09-24T22:16:13.326Z,12.70
2022-09-24T22:18:14.812Z,12.67
2022-09-24T22:20:16.308Z,12.64
2022-09-24T22:22:17.734Z,12.59
2022-09-24T22:24:19.200Z,12.60
2022-09-24T22:26:20.784Z,12.62
2022-09-24T22:28:24.469Z,12.62
2022-09-24T22:30:26.024Z,12.60
2022-09-24T22:32:27.485Z,12.56
2022-09-24T22:34:47.813Z,12.54
2022-09-24T22:36:49.282Z,12.47
2022-09-24T22:38:56.365Z,12.45
2022-09-24T22:41:02.185Z,12.44
2022-09-24T22:43:03.616Z,12.43
2022-09-24T22:45:05.597Z,12.44
2022-09-24T22:47:07.032Z,12.47
2022-09-24T22:49:09.216Z,12.47
2022-09-24T22:51:11.047Z,12.47
2022-09-24T22:53:12.470Z,12.44
2022-09-24T22:55:14.596Z,12.48
2022-09-24T22:57:16.132Z,12.48
2022-09-24T22:59:17.532Z,12.50
2022-09-24T23:01:23.047Z,12.51
2022-09-24T23:03:24.746Z,12.52
2022-09-24T23:05:26.256Z,12.54
2022-09-24T23:07:27.772Z,12.57
2022-09-24T23:09:29.223Z,12.58
2022-09-24T23:11:33.095Z,12.62
2022-09-24T23:13:35.326Z,12.61
2022-09-24T23:15:36.848Z,12.59
2022-09-24T23:17:38.349Z,12.57
2022-09-24T23:19:48.660Z,12.57
2022-09-24T23:21:50.105Z,12.58
2022-09-24T23:23:59.937Z,12.54
2022-09-24T23:26:08.081Z,12.52
2022-09-24T23:28:09.509Z,12.50
2022-09-24T23:30:11.209Z,12.47
2022-09-24T23:32:14.307Z,12.47
2022-09-24T23:34:15.749Z,12.46
2022-09-24T23:36:18.103Z,12.45
2022-09-24T23:38:19.738Z,12.44
2022-09-24T23:40:21.255Z,12.42
2022-09-24T23:42:23.636Z,12.42
2022-09-24T23:44:25.101Z,12.43
2022-09-24T23:46:27.434Z,12.42
2022-09-24T23:48:29.691Z,12.40
2022-09-24T23:50:31.140Z,12.40
2022-09-24T23:52:32.610Z,12.40
2022-09-24T23:54:36.437Z,12.43
2022-09-24T23:56:38.108Z,12.45
2022-09-24T23:58:41.989Z,12.44
